createdAt,value
2017-10-21T00:01:35.190Z,22.13
2017-10-21T00:04:02.819Z,23.57
2017-10-21T00:06:30.492Z,21.10
2017-10-21T00:08:58.427Z,17.03
2017-10-21T00:11:26.064Z,17.30
2017-10-21T00:13:53.637Z,15.93
2017-10-21T00:16:22.348Z,18.03
2017-10-21T00:18:50.556Z,21.63
2017-10-21T00:21:18.209Z,12.43
2017-10-21T00:23:45.756Z,12.90
2017-10-21T00:26:14.357Z,11.50
2017-10-21T00:28:42.424Z,12.43
2017-10-21T00:31:11.741Z,12.10
2017-10-21T00:33:40.517Z,13.50
2017-10-21T00:36:09.936Z,12.60
2017-10-21T00:38:40.675Z,11.00
2017-10-21T00:41:10.738Z,11.97
2017-10-21T00:43:42.445Z,13.77
2017-10-21T00:46:10.823Z,12.20
2017-10-21T00:48:40.166Z,12.03
2017-10-21T00:51:10.593Z,11.70
2017-10-21T00:53:38.871Z,15.20
2017-10-21T00:56:06.429Z,13.03
2017-10-21T00:58:34.093Z,12.43
2017-10-21T01:01:01.735Z,14.20
2017-10-21T01:03:30.476Z,15.77
2017-10-21T01:05:58.958Z,15.73
2017-10-21T01:08:26.604Z,15.13
2017-10-21T01:10:57.841Z,16.07
2017-10-21T01:13:28.780Z,13.53
2017-10-21T01:15:57.472Z,13.73
2017-10-21T01:18:25.061Z,12.97
2017-10-21T01:20:52.625Z,15.07
2017-10-21T01:23:21.574Z,18.53
2017-10-21T01:25:49.398Z,15.47
2017-10-21T01:28:17.271Z,14.43
2017-10-21T01:30:45.036Z,14.37
2017-10-21T01:33:12.735Z,12.53
2017-10-21T01:35:41.433Z,14.33
2017-10-21T01:38:09.121Z,12.33
2017-10-21T01:40:36.805Z,13.70
2017-10-21T01:43:05.035Z,11.73
2017-10-21T01:45:33.541Z,12.63
2017-10-21T01:48:01.955Z,13.03
2017-10-21T01:50:29.546Z,15.77
2017-10-21T01:52:57.225Z,11.73
2017-10-21T01:55:24.982Z,13.80
2017-10-21T01:57:52.818Z,12.00
2017-10-21T02:00:21.122Z,12.00
2017-10-21T02:02:49.663Z,13.13
2017-10-21T02:05:17.540Z,13.40
2017-10-21T02:07:45.188Z,15.57
2017-10-21T02:10:12.839Z,13.40
2017-10-21T02:12:40.562Z,12.00
2017-10-21T02:15:08.345Z,14.50
2017-10-21T02:17:37.463Z,13.47
2017-10-21T02:20:05.472Z,12.10
2017-10-21T02:22:34.852Z,13.67
2017-10-21T02:25:02.531Z,11.07
2017-10-21T02:27:30.291Z,13.97
2017-10-21T02:29:57.863Z,16.47
2017-10-21T02:32:25.794Z,12.00
2017-10-21T02:34:53.613Z,13.87
2017-10-21T02:37:21.208Z,14.03
2017-10-21T02:39:49.091Z,15.77
2017-10-21T02:42:17.470Z,12.20
2017-10-21T02:44:45.026Z,14.13
2017-10-21T02:47:13.343Z,13.50
2017-10-21T02:49:41.525Z,13.03
2017-10-21T02:52:15.647Z,12.40
2017-10-21T02:54:44.253Z,12.93
2017-10-21T02:57:12.275Z,13.80
2017-10-21T02:59:40.050Z,15.23
2017-10-21T03:02:11.098Z,15.67
2017-10-21T03:04:38.765Z,15.10
2017-10-21T03:07:06.546Z,13.37
2017-10-21T03:09:37.013Z,12.97
2017-10-21T03:12:07.760Z,13.03
2017-10-21T03:14:35.608Z,13.97
2017-10-21T03:17:03.275Z,12.20
2017-10-21T03:19:30.886Z,13.10
2017-10-21T03:21:58.496Z,11.50
2017-10-21T03:24:26.186Z,16.27
2017-10-21T03:26:53.833Z,14.20
2017-10-21T03:29:22.742Z,10.80
2017-10-21T03:31:51.420Z,11.40
2017-10-21T03:34:19.231Z,15.77
2017-10-21T03:36:48.132Z,12.10
2017-10-21T03:39:15.799Z,14.97
2017-10-21T03:41:44.121Z,12.33
2017-10-21T03:44:11.718Z,13.00
2017-10-21T03:46:39.490Z,12.60
2017-10-21T03:49:07.036Z,14.07
2017-10-21T03:51:38.045Z,13.20
2017-10-21T03:54:05.967Z,13.33
2017-10-21T03:56:33.586Z,16.13
2017-10-21T03:59:01.492Z,15.03
2017-10-21T04:01:29.154Z,16.07
2017-10-21T04:03:56.881Z,15.83
2017-10-21T04:06:24.473Z,13.60
2017-10-21T04:08:55.548Z,15.23
2017-10-21T04:11:23.019Z,16.37
2017-10-21T04:13:50.641Z,13.40
2017-10-21T04:16:18.631Z,12.53
2017-10-21T04:18:46.390Z,15.80
2017-10-21T04:21:14.075Z,14.20
2017-10-21T04:23:41.654Z,13.87
2017-10-21T04:26:10.010Z,15.77
2017-10-21T04:28:37.664Z,12.60
2017-10-21T04:31:05.293Z,13.00
2017-10-21T04:33:34.606Z,15.97
2017-10-21T04:36:09.057Z,16.20
2017-10-21T04:38:37.439Z,16.60
2017-10-21T04:41:09.437Z,23.50
2017-10-21T04:43:43.866Z,14.57
2017-10-21T04:46:16.614Z,14.37
2017-10-21T04:48:47.947Z,19.70
2017-10-21T04:51:15.688Z,16.33
2017-10-21T04:53:45.008Z,13.47
2017-10-21T04:56:13.354Z,13.23
2017-10-21T04:58:41.754Z,14.03
2017-10-21T05:01:10.324Z,14.43
2017-10-21T05:03:38.665Z,13.57
2017-10-21T05:06:07.103Z,15.20
2017-10-21T05:08:34.978Z,15.60
2017-10-21T05:11:04.339Z,15.73
2017-10-21T05:13:34.033Z,16.40
2017-10-21T05:16:02.696Z,16.40
2017-10-21T05:18:31.276Z,14.50
2017-10-21T05:20:58.999Z,14.80
2017-10-21T05:23:27.411Z,16.30
2017-10-21T05:25:55.459Z,18.50
2017-10-21T05:28:23.428Z,16.13
2017-10-21T05:30:51.339Z,14.20
2017-10-21T05:33:21.522Z,14.67
2017-10-21T05:35:49.178Z,14.80
2017-10-21T05:38:17.274Z,15.30
2017-10-21T05:40:44.940Z,14.60
2017-10-21T05:43:12.790Z,16.37
2017-10-21T05:45:40.415Z,15.70
2017-10-21T05:48:08.105Z,13.80
2017-10-21T05:50:36.334Z,15.87
2017-10-21T05:53:04.017Z,12.60
2017-10-21T05:55:32.364Z,15.33
2017-10-21T05:58:00.212Z,16.37
2017-10-21T06:00:27.829Z,15.37
2017-10-21T06:02:55.429Z,14.87
2017-10-21T06:05:23.212Z,17.13
2017-10-21T06:07:50.978Z,15.13
2017-10-21T06:10:18.559Z,15.27
2017-10-21T06:12:46.166Z,14.53
2017-10-21T06:15:14.086Z,16.23
2017-10-21T06:17:41.808Z,15.83
2017-10-21T06:20:09.514Z,17.00
2017-10-21T06:22:37.163Z,12.67
2017-10-21T06:25:04.981Z,15.87
2017-10-21T06:27:32.633Z,14.80
2017-10-21T06:30:00.426Z,15.30
2017-10-21T06:32:28.395Z,18.87
2017-10-21T06:34:56.031Z,16.93
2017-10-21T06:37:24.088Z,14.10
2017-10-21T06:39:51.603Z,13.70
2017-10-21T06:42:19.430Z,15.87
2017-10-21T06:44:47.498Z,14.07
2017-10-21T06:47:15.012Z,14.50
2017-10-21T06:49:42.592Z,15.67
2017-10-21T06:52:10.086Z,19.60
2017-10-21T06:54:37.913Z,16.70
2017-10-21T06:57:06.825Z,15.10
2017-10-21T06:59:34.519Z,16.43
2017-10-21T07:02:02.074Z,14.97
2017-10-21T07:04:29.770Z,24.93
2017-10-21T07:06:57.388Z,19.53
2017-10-21T07:09:26.940Z,22.20
2017-10-21T07:11:56.682Z,15.80
2017-10-21T07:14:24.265Z,17.33
2017-10-21T07:16:51.962Z,16.40
2017-10-21T07:19:19.637Z,17.60
2017-10-21T07:21:47.419Z,16.00
2017-10-21T07:24:15.228Z,18.77
2017-10-21T07:26:43.022Z,17.00
2017-10-21T07:29:11.100Z,18.00
2017-10-21T07:31:38.656Z,17.17
2017-10-21T07:34:06.201Z,19.00
2017-10-21T07:36:33.771Z,20.30
2017-10-21T07:39:06.812Z,15.17
2017-10-21T07:41:34.390Z,20.43
2017-10-21T07:44:01.970Z,17.77
2017-10-21T07:46:29.519Z,18.87
2017-10-21T07:48:57.017Z,14.43
2017-10-21T07:51:24.546Z,16.53
2017-10-21T07:53:52.094Z,20.83
2017-10-21T07:56:19.629Z,14.57
2017-10-21T07:58:47.152Z,18.83
2017-10-21T08:01:15.663Z,13.80
2017-10-21T08:03:43.237Z,17.20
2017-10-21T08:06:10.766Z,14.47
2017-10-21T08:08:38.348Z,18.73
2017-10-21T08:11:05.914Z,14.07
2017-10-21T08:13:33.598Z,15.87
2017-10-21T08:16:01.125Z,15.13
2017-10-21T08:18:28.634Z,15.27
2017-10-21T08:20:56.763Z,14.93
2017-10-21T08:23:24.263Z,16.00
2017-10-21T08:25:52.740Z,13.33
2017-10-21T08:28:22.183Z,14.57
2017-10-21T08:30:49.762Z,12.67
2017-10-21T08:33:17.465Z,11.70
2017-10-21T08:35:45.104Z,12.13
2017-10-21T08:38:12.682Z,12.90
2017-10-21T08:40:40.189Z,11.93
2017-10-21T08:43:07.836Z,13.37
2017-10-21T08:45:35.335Z,10.60
2017-10-21T08:48:03.813Z,11.20
2017-10-21T08:50:32.723Z,10.23
2017-10-21T08:53:00.861Z,13.20
2017-10-21T08:55:28.468Z,8.17
2017-10-21T09:00:30.773Z,8.70
2017-10-21T09:02:58.290Z,9.73
2017-10-21T09:05:25.950Z,8.00
2017-10-21T09:07:53.549Z,6.60
2017-10-21T09:10:22.045Z,6.77
2017-10-21T09:12:49.659Z,6.93
2017-10-21T09:15:17.614Z,5.20
2017-10-21T09:17:45.192Z,5.73
2017-10-21T09:20:12.736Z,5.50
2017-10-21T09:22:40.290Z,5.33
2017-10-21T09:25:08.310Z,5.10
2017-10-21T09:27:35.893Z,7.07
2017-10-21T09:30:03.604Z,6.40
2017-10-21T09:32:31.300Z,9.87
2017-10-21T09:34:58.882Z,6.40
2017-10-21T09:37:26.393Z,8.37
2017-10-21T09:39:54.889Z,8.13
2017-10-21T09:42:22.442Z,12.43
2017-10-21T09:44:50.003Z,8.20
2017-10-21T09:47:17.822Z,15.37
2017-10-21T09:49:45.346Z,9.57
2017-10-21T09:52:13.323Z,10.07
2017-10-21T09:54:40.931Z,9.33
2017-10-21T09:57:08.525Z,8.23
2017-10-21T09:59:36.022Z,7.23
2017-10-21T10:02:04.258Z,7.53
2017-10-21T10:04:31.879Z,7.63
2017-10-21T10:06:59.477Z,8.93
2017-10-21T10:09:27.076Z,8.87
2017-10-21T10:11:54.672Z,9.97
2017-10-21T10:14:22.229Z,8.50
2017-10-21T10:16:49.737Z,6.70
2017-10-21T10:19:17.245Z,6.07
2017-10-21T10:21:44.755Z,8.60
2017-10-21T10:24:12.258Z,7.00
2017-10-21T10:26:39.783Z,9.10
2017-10-21T10:29:08.232Z,8.13
2017-10-21T10:31:35.818Z,10.03
2017-10-21T10:34:03.335Z,6.70
2017-10-21T10:36:30.963Z,10.30
2017-10-21T10:38:58.520Z,6.97
2017-10-21T10:41:26.289Z,14.03
2017-10-21T10:43:53.794Z,9.77
2017-10-21T10:46:21.407Z,6.60
2017-10-21T10:48:49.074Z,7.63
2017-10-21T10:51:16.870Z,7.87
2017-10-21T10:53:44.434Z,14.17
2017-10-21T10:56:11.949Z,7.23
2017-10-21T10:58:39.739Z,6.80
2017-10-21T11:01:07.285Z,5.87
2017-10-21T11:03:34.983Z,10.97
2017-10-21T11:06:02.598Z,7.33
2017-10-21T11:08:30.102Z,5.13
2017-10-21T11:10:57.699Z,6.50
2017-10-21T11:13:25.210Z,8.60
2017-10-21T11:15:53.020Z,6.40
2017-10-21T11:18:20.562Z,9.17
2017-10-21T11:20:48.991Z,6.13
2017-10-21T11:23:16.501Z,9.87
2017-10-21T11:25:44.123Z,5.40
2017-10-21T11:28:12.553Z,7.90
2017-10-21T11:30:40.301Z,9.70
2017-10-21T11:33:08.836Z,7.57
2017-10-21T11:35:36.398Z,7.60
2017-10-21T11:38:03.967Z,8.00
2017-10-21T11:40:31.737Z,10.80
2017-10-21T11:42:59.251Z,7.70
2017-10-21T11:45:26.894Z,8.53
2017-10-21T11:47:54.529Z,7.33
2017-10-21T11:50:22.105Z,8.23
2017-10-21T11:52:49.667Z,6.40
2017-10-21T11:55:17.419Z,6.43
2017-10-21T11:57:45.679Z,9.63
2017-10-21T12:00:13.256Z,6.23
2017-10-21T12:02:40.853Z,4.83
2017-10-21T12:05:08.534Z,6.70
2017-10-21T12:07:36.063Z,5.60
2017-10-21T12:10:04.062Z,5.90
2017-10-21T12:12:32.125Z,9.07
2017-10-21T12:15:00.270Z,7.27
2017-10-21T12:17:28.222Z,5.83
2017-10-21T12:19:56.884Z,6.67
2017-10-21T12:22:26.003Z,9.17
2017-10-21T12:24:53.726Z,6.60
2017-10-21T12:27:21.821Z,5.37
2017-10-21T12:29:49.773Z,8.37
2017-10-21T12:32:33.364Z,7.13
2017-10-21T12:35:03.498Z,8.50
2017-10-21T12:37:36.092Z,8.63
2017-10-21T12:40:05.139Z,6.80
2017-10-21T12:42:33.923Z,6.40
2017-10-21T12:45:02.286Z,12.33
2017-10-21T12:47:30.555Z,8.03
2017-10-21T12:50:02.622Z,11.03
2017-10-21T12:52:31.356Z,6.20
2017-10-21T12:54:58.992Z,6.57
2017-10-21T12:57:27.222Z,5.10
2017-10-21T12:59:54.961Z,9.90
2017-10-21T13:02:22.778Z,6.43
2017-10-21T13:04:52.370Z,5.60
2017-10-21T13:07:20.149Z,5.30
2017-10-21T13:09:47.761Z,5.63
2017-10-21T13:12:15.365Z,10.40
2017-10-21T13:14:42.894Z,6.97
2017-10-21T13:17:10.432Z,6.27
2017-10-21T13:19:38.918Z,5.27
2017-10-21T13:22:06.456Z,5.17
2017-10-21T13:24:33.970Z,5.87
2017-10-21T13:27:01.521Z,5.63
2017-10-21T13:29:29.033Z,7.53
2017-10-21T13:31:56.555Z,8.13
2017-10-21T13:34:24.221Z,4.97
2017-10-21T13:36:51.839Z,5.50
2017-10-21T13:39:19.397Z,5.97
2017-10-21T13:41:46.953Z,6.97
2017-10-21T13:44:14.497Z,5.03
2017-10-21T13:46:42.030Z,6.73
2017-10-21T13:49:09.577Z,4.83
2017-10-21T13:51:37.111Z,4.73
2017-10-21T13:54:04.617Z,8.30
2017-10-21T13:56:32.214Z,7.10
2017-10-21T13:58:59.710Z,6.00
2017-10-21T14:01:27.487Z,5.37
2017-10-21T14:03:55.175Z,25.50
2017-10-21T14:06:22.773Z,14.83
2017-10-21T14:08:50.377Z,7.80
2017-10-21T14:11:17.981Z,8.37
2017-10-21T14:13:45.998Z,8.40
2017-10-21T14:16:13.601Z,6.33
2017-10-21T14:18:41.313Z,8.20
2017-10-21T14:21:08.888Z,5.23
2017-10-21T14:23:37.429Z,5.10
2017-10-21T14:26:04.950Z,8.57
2017-10-21T14:28:32.544Z,6.10
2017-10-21T14:31:00.150Z,8.80
2017-10-21T14:33:27.717Z,6.17
2017-10-21T14:35:55.262Z,5.40
2017-10-21T14:38:22.754Z,7.20
2017-10-21T14:40:51.263Z,6.73
2017-10-21T14:43:18.864Z,7.93
2017-10-21T14:45:46.467Z,7.83
2017-10-21T14:48:14.007Z,6.10
2017-10-21T14:50:41.512Z,9.97
2017-10-21T14:53:09.048Z,7.57
2017-10-21T14:55:36.718Z,9.23
2017-10-21T14:58:04.214Z,11.50
2017-10-21T15:00:31.890Z,9.90
2017-10-21T15:02:59.460Z,14.60
2017-10-21T15:05:26.968Z,9.10
2017-10-21T15:07:54.560Z,9.70
2017-10-21T15:10:22.120Z,9.73
2017-10-21T15:12:49.894Z,12.80
2017-10-21T15:15:18.310Z,16.20
2017-10-21T15:17:45.911Z,18.67
2017-10-21T15:20:13.401Z,26.00
2017-10-21T15:22:40.916Z,11.20
2017-10-21T15:25:08.501Z,11.37
2017-10-21T15:27:36.078Z,11.73
2017-10-21T15:30:03.732Z,15.57
2017-10-21T15:32:32.308Z,11.70
2017-10-21T15:34:59.908Z,13.03
2017-10-21T15:37:27.713Z,15.20
2017-10-21T15:39:56.458Z,15.47
2017-10-21T15:42:24.018Z,11.47
2017-10-21T15:44:51.554Z,9.73
2017-10-21T15:47:19.117Z,21.80
2017-10-21T15:49:46.665Z,30.10
2017-10-21T15:52:14.406Z,17.20
2017-10-21T15:54:41.942Z,20.30
2017-10-21T15:57:09.480Z,16.53
2017-10-21T15:59:37.363Z,17.63
2017-10-21T16:02:04.913Z,14.77
2017-10-21T16:04:32.471Z,14.47
2017-10-21T16:07:00.015Z,13.97
2017-10-21T16:09:27.585Z,13.67
2017-10-21T16:11:55.111Z,13.37
2017-10-21T16:14:23.365Z,14.97
2017-10-21T16:16:51.253Z,12.93
2017-10-21T16:19:18.928Z,22.17
2017-10-21T16:21:46.567Z,55.60
2017-10-21T16:24:14.070Z,47.93
2017-10-21T16:26:41.633Z,25.67
2017-10-21T16:29:09.138Z,20.23
2017-10-21T16:31:37.718Z,15.40
2017-10-21T16:34:05.404Z,15.90
2017-10-21T16:36:33.596Z,17.77
2017-10-21T16:39:03.205Z,19.03
2017-10-21T16:41:31.102Z,15.93
2017-10-21T16:43:59.369Z,16.33
2017-10-21T16:46:27.870Z,19.83
2017-10-21T16:48:55.560Z,16.70
2017-10-21T16:51:24.718Z,18.33
2017-10-21T16:53:52.549Z,12.17
2017-10-21T16:56:20.504Z,14.40
2017-10-21T16:58:49.388Z,17.53
2017-10-21T17:01:17.149Z,8.57
2017-10-21T17:03:45.670Z,7.13
2017-10-21T17:06:13.869Z,6.27
2017-10-21T17:08:41.680Z,2.43
2017-10-21T17:11:09.202Z,3.03
2017-10-21T17:13:38.758Z,2.40
2017-10-21T17:16:07.430Z,1.77
2017-10-21T17:18:35.319Z,2.77
2017-10-21T17:21:03.356Z,2.43
2017-10-21T17:23:32.509Z,4.67
2017-10-21T17:26:05.153Z,2.00
2017-10-21T17:28:33.824Z,3.10
2017-10-21T17:31:01.479Z,1.40
2017-10-21T17:33:29.222Z,4.73
2017-10-21T17:35:57.020Z,1.43
2017-10-21T17:38:25.185Z,1.20
2017-10-21T17:40:53.222Z,1.50
2017-10-21T17:43:21.126Z,0.97
2017-10-21T17:45:50.008Z,5.00
2017-10-21T17:48:17.801Z,2.13
2017-10-21T17:50:45.766Z,6.10
2017-10-21T17:53:13.356Z,3.83
2017-10-21T17:55:41.718Z,3.97
2017-10-21T17:58:09.573Z,1.63
2017-10-21T18:00:37.124Z,5.00
2017-10-21T18:03:05.894Z,3.97
2017-10-21T18:05:33.960Z,3.93
2017-10-21T18:08:02.192Z,4.83
2017-10-21T18:10:30.024Z,2.70
2017-10-21T18:12:57.581Z,6.30
2017-10-21T18:15:25.109Z,2.70
2017-10-21T18:17:52.795Z,6.83
2017-10-21T18:20:20.928Z,2.80
2017-10-21T18:22:48.764Z,3.30
2017-10-21T18:25:16.551Z,6.47
2017-10-21T18:27:44.621Z,4.53
2017-10-21T18:30:13.098Z,4.50
2017-10-21T18:32:41.388Z,4.33
2017-10-21T18:35:09.601Z,3.00
2017-10-21T18:37:38.378Z,2.80
2017-10-21T18:40:06.355Z,3.20
2017-10-21T18:42:34.403Z,2.30
2017-10-21T18:45:04.363Z,3.77
2017-10-21T18:47:33.303Z,3.33
2017-10-21T18:50:02.716Z,3.80
2017-10-21T18:52:30.438Z,4.77
2017-10-21T18:54:59.497Z,4.63
2017-10-21T18:57:27.347Z,4.77
2017-10-21T18:59:55.932Z,2.10
2017-10-21T19:02:24.164Z,3.93
2017-10-21T19:04:53.005Z,5.00
2017-10-21T19:07:22.026Z,2.73
2017-10-21T19:09:50.892Z,6.83
2017-10-21T19:12:20.088Z,4.13
2017-10-21T19:14:48.635Z,3.80
2017-10-21T19:17:16.889Z,3.80
2017-10-21T19:19:44.542Z,2.67
2017-10-21T19:22:12.590Z,3.80
2017-10-21T19:24:41.131Z,4.30
2017-10-21T19:27:09.482Z,2.30
2017-10-21T19:29:37.357Z,3.70
2017-10-21T19:32:04.955Z,6.03
2017-10-21T19:34:32.573Z,4.20
2017-10-21T19:37:00.398Z,6.63
2017-10-21T19:39:27.930Z,4.23
2017-10-21T19:41:55.506Z,7.37
2017-10-21T19:44:23.438Z,5.13
2017-10-21T19:46:52.134Z,3.53
2017-10-21T19:49:21.240Z,4.53
2017-10-21T19:51:49.374Z,5.50
2017-10-21T19:54:16.873Z,4.47
2017-10-21T19:56:45.416Z,4.40
2017-10-21T19:59:13.655Z,2.00
2017-10-21T20:01:41.365Z,5.63
2017-10-21T20:04:09.071Z,2.80
2017-10-21T20:06:36.682Z,4.17
2017-10-21T20:09:04.603Z,5.43
2017-10-21T20:11:33.254Z,3.80
2017-10-21T20:14:01.990Z,8.03
2017-10-21T20:16:30.038Z,6.33
2017-10-21T20:18:57.880Z,4.17
2017-10-21T20:21:29.001Z,4.23
2017-10-21T20:23:56.701Z,8.33
2017-10-21T20:26:25.147Z,2.73
2017-10-21T20:28:52.693Z,5.63
2017-10-21T20:31:21.221Z,5.40
2017-10-21T20:33:49.394Z,5.83
2017-10-21T20:36:16.968Z,8.50
2017-10-21T20:38:46.039Z,7.80
2017-10-21T20:41:14.101Z,6.93
2017-10-21T20:43:42.491Z,5.90
2017-10-21T20:46:10.364Z,6.40
2017-10-21T20:48:37.951Z,5.50
2017-10-21T20:51:06.511Z,5.83
2017-10-21T20:53:34.377Z,4.80
2017-10-21T20:56:02.721Z,5.87
2017-10-21T20:58:31.335Z,10.07
2017-10-21T21:00:59.015Z,8.93
2017-10-21T21:03:27.112Z,6.50
2017-10-21T21:05:54.793Z,6.77
2017-10-21T21:08:23.451Z,5.73
2017-10-21T21:10:52.144Z,4.40
2017-10-21T21:13:22.067Z,2.70
2017-10-21T21:15:49.764Z,3.60
2017-10-21T21:18:17.881Z,7.20
2017-10-21T21:20:45.504Z,6.17
2017-10-21T21:23:15.864Z,7.17
2017-10-21T21:25:45.148Z,10.13
2017-10-21T21:28:13.042Z,14.27
2017-10-21T21:30:42.707Z,3.17
2017-10-21T21:33:10.706Z,4.37
2017-10-21T21:35:40.314Z,5.53
2017-10-21T21:38:09.559Z,2.90
2017-10-21T21:40:37.224Z,3.47
2017-10-21T21:43:04.942Z,3.97
2017-10-21T21:45:32.477Z,4.63
2017-10-21T21:48:00.101Z,2.00
2017-10-21T21:50:29.160Z,7.23
2017-10-21T21:52:56.846Z,4.37
2017-10-21T21:55:25.715Z,9.27
2017-10-21T21:57:53.367Z,7.60
2017-10-21T22:00:21.053Z,2.50
2017-10-21T22:02:49.308Z,4.83
2017-10-21T22:05:17.648Z,4.27
2017-10-21T22:07:46.444Z,3.97
2017-10-21T22:10:14.045Z,4.57
2017-10-21T22:12:41.761Z,3.73
2017-10-21T22:15:09.305Z,2.67
2017-10-21T22:17:37.430Z,5.40
2017-10-21T22:20:05.908Z,4.40
2017-10-21T22:22:33.686Z,2.00
2017-10-21T22:25:01.779Z,3.50
2017-10-21T22:27:31.341Z,2.00
2017-10-21T22:29:58.953Z,2.33
2017-10-21T22:32:27.131Z,3.20
2017-10-21T22:34:55.314Z,5.10
2017-10-21T22:37:22.931Z,3.40
2017-10-21T22:39:50.535Z,2.20
2017-10-21T22:42:18.188Z,3.10
2017-10-21T22:44:46.019Z,5.30
2017-10-21T22:47:14.534Z,3.60
2017-10-21T22:49:42.168Z,4.63
2017-10-21T22:52:10.585Z,6.10
2017-10-21T22:54:38.186Z,5.17
2017-10-21T22:57:06.073Z,2.50
2017-10-21T22:59:33.870Z,3.87
2017-10-21T23:02:01.433Z,3.60
2017-10-21T23:04:28.976Z,4.40
2017-10-21T23:06:56.661Z,2.83
2017-10-21T23:09:24.308Z,3.63
2017-10-21T23:11:51.851Z,5.53
2017-10-21T23:14:19.525Z,4.30
2017-10-21T23:16:47.165Z,6.10
2017-10-21T23:19:14.699Z,2.60
2017-10-21T23:21:42.235Z,2.27
2017-10-21T23:24:09.877Z,3.57
2017-10-21T23:26:38.362Z,3.70
2017-10-21T23:29:09.766Z,2.63
2017-10-21T23:31:37.283Z,3.87
2017-10-21T23:34:05.161Z,4.27
2017-10-21T23:36:32.758Z,5.17
2017-10-21T23:39:00.365Z,3.50
2017-10-21T23:41:28.705Z,3.97
2017-10-21T23:43:58.559Z,2.40
2017-10-21T23:46:27.646Z,3.20
2017-10-21T23:48:55.268Z,3.73
2017-10-21T23:51:22.900Z,2.27
2017-10-21T23:53:50.481Z,3.03
2017-10-21T23:56:18.161Z,4.03
2017-10-21T23:58:46.533Z,2.53
